Terminal Aerodrome Forecast
Issued by NWS

Home | Current Version | Previous Version | Text Only | Print | Product List | Glossary On
Versions: 1 2 3 4 5 6 7 8 9 10 11 12 13 14 15 16 17 18 19 20 21 22 23 24 25 26 27 28 29 30 31 32 33
314
FTUS43 KLOT 241137
TAFORD
TAF
KORD 241137Z 2412/2518 36010KT P6SM BKN015 BKN025
     FM241400 03011G17KT P6SM BKN022 BKN035
     FM242000 04010KT P6SM FEW030
     FM250100 04006KT P6SM SKC
     FM251300 15007KT P6SM SKC=

USA.gov is the U.S. government's official web portal to all federal, state and local government web resources and services.